createdAt,value
2023-01-18T00:02:31.798Z,101.20
2023-01-18T00:07:40.503Z,158.89
2023-01-18T00:12:49.144Z,137.30
2023-01-18T00:17:57.664Z,218.69
2023-01-18T00:23:06.495Z,131.90
2023-01-18T00:28:15.302Z,192.18
2023-01-18T00:33:24.365Z,191.00
2023-01-18T00:38:32.892Z,178.65
2023-01-18T00:43:41.742Z,187.63
2023-01-18T00:48:50.235Z,297.82
2023-01-18T00:53:59.071Z,156.81
2023-01-18T00:59:07.130Z,243.73
2023-01-18T01:04:15.711Z,341.37
2023-01-18T01:09:24.114Z,188.53
2023-01-18T01:14:33.152Z,288.74
2023-01-18T01:19:41.146Z,213.39
2023-01-18T01:24:49.453Z,116.57
2023-01-18T01:29:57.498Z,185.15
2023-01-18T01:35:08.909Z,187.89
2023-01-18T01:40:07.335Z,199.83
2023-01-18T01:45:15.636Z,237.78
2023-01-18T01:50:24.333Z,191.71
2023-01-18T01:55:33.112Z,218.45
2023-01-18T02:00:41.119Z,205.47
2023-01-18T02:05:49.749Z,130.97
2023-01-18T02:10:57.855Z,222.80
2023-01-18T02:16:06.703Z,177.43
2023-01-18T02:21:14.999Z,197.34
2023-01-18T02:26:23.654Z,176.03
2023-01-18T02:31:32.044Z,256.97
2023-01-18T02:36:41.764Z,227.27
2023-01-18T02:41:49.819Z,370.04
2023-01-18T02:46:58.575Z,193.46
2023-01-18T02:52:07.003Z,309.83
2023-01-18T02:57:15.566Z,307.06
2023-01-18T03:02:23.948Z,347.88
2023-01-18T03:07:32.984Z,334.75
2023-01-18T03:12:41.552Z,241.48
2023-01-18T03:17:50.527Z,192.22
2023-01-18T03:22:59.391Z,350.83
2023-01-18T03:28:07.143Z,316.62
2023-01-18T03:33:15.481Z,326.27
2023-01-18T03:38:24.389Z,262.47
2023-01-18T03:43:32.781Z,282.14
2023-01-18T03:48:41.950Z,144.64
2023-01-18T03:53:50.396Z,206.74
2023-01-18T03:58:59.161Z,225.36
2023-01-18T04:04:07.781Z,184.37
2023-01-18T04:09:16.917Z,194.48
2023-01-18T04:14:25.630Z,181.69
2023-01-18T04:19:34.487Z,231.53
2023-01-18T04:24:42.955Z,198.78
2023-01-18T04:29:51.509Z,192.85
2023-01-18T04:35:00.127Z,159.19
2023-01-18T04:40:09.385Z,181.30
2023-01-18T04:45:18.002Z,127.36
2023-01-18T04:50:27.019Z,204.00
2023-01-18T04:55:35.969Z,128.01
2023-01-18T05:00:45.208Z,180.30
2023-01-18T05:05:53.961Z,147.65
2023-01-18T05:11:02.905Z,140.09
2023-01-18T05:16:11.360Z,176.89
2023-01-18T05:21:20.187Z,149.10
2023-01-18T05:26:28.919Z,188.31
2023-01-18T05:31:37.590Z,133.28
2023-01-18T05:36:46.034Z,138.07
2023-01-18T05:41:54.630Z,155.05
2023-01-18T05:47:03.087Z,123.13
2023-01-18T05:52:15.464Z,95.29
2023-01-18T05:57:14.135Z,92.05
2023-01-18T06:02:22.869Z,105.73
2023-01-18T06:07:30.926Z,100.96
2023-01-18T06:12:39.620Z,104.87
2023-01-18T06:17:48.611Z,115.73
2023-01-18T06:22:57.842Z,106.27
2023-01-18T06:28:06.354Z,96.38
2023-01-18T06:33:15.963Z,90.04
2023-01-18T06:38:25.077Z,94.48
2023-01-18T06:43:33.782Z,93.39
2023-01-18T06:48:42.506Z,112.96
2023-01-18T06:53:51.376Z,102.28
2023-01-18T06:58:59.759Z,97.87
2023-01-18T07:04:09.009Z,88.15
2023-01-18T07:09:17.506Z,94.70
2023-01-18T07:14:26.218Z,93.61
2023-01-18T07:19:34.667Z,91.85
2023-01-18T07:24:43.500Z,93.71
2023-01-18T07:29:51.881Z,93.29
2023-01-18T07:35:00.936Z,104.76
2023-01-18T07:40:09.593Z,99.65
2023-01-18T07:45:18.281Z,95.49
2023-01-18T07:50:27.168Z,86.19
2023-01-18T07:55:36.350Z,91.52
2023-01-18T08:00:44.795Z,102.08
2023-01-18T08:05:53.754Z,107.55
2023-01-18T08:11:02.331Z,93.49
2023-01-18T08:16:11.074Z,86.70
2023-01-18T08:21:19.815Z,79.60
2023-01-18T08:26:28.124Z,87.81
2023-01-18T08:31:36.525Z,83.81
2023-01-18T08:36:45.813Z,91.54
2023-01-18T08:41:54.440Z,76.11
2023-01-18T08:47:03.472Z,81.14
2023-01-18T08:52:12.057Z,79.57
2023-01-18T08:57:21.435Z,75.32
2023-01-18T09:02:29.995Z,75.03
2023-01-18T09:07:38.970Z,60.15
2023-01-18T09:12:47.429Z,46.34
2023-01-18T09:17:56.539Z,42.49
2023-01-18T09:23:05.467Z,48.64
2023-01-18T09:28:14.407Z,55.98
2023-01-18T09:33:25.989Z,54.70
2023-01-18T09:38:31.601Z,52.47
2023-01-18T09:43:40.809Z,63.73
2023-01-18T09:48:49.687Z,84.10
2023-01-18T09:53:58.295Z,75.81
2023-01-18T09:59:06.926Z,94.17
2023-01-18T10:04:15.537Z,87.53
2023-01-18T10:09:24.379Z,73.51
2023-01-18T10:14:33.016Z,87.55
2023-01-18T10:19:42.128Z,86.77
2023-01-18T10:24:50.537Z,82.00
2023-01-18T10:29:59.489Z,80.57
2023-01-18T10:35:08.633Z,56.08
2023-01-18T10:40:17.731Z,62.92
2023-01-18T10:45:26.373Z,65.15
2023-01-18T10:50:35.511Z,52.97
2023-01-18T10:55:44.427Z,53.88
2023-01-18T11:00:54.638Z,50.24
2023-01-18T11:05:52.889Z,58.54
2023-01-18T11:11:02.277Z,59.68
2023-01-18T11:16:10.946Z,53.72
2023-01-18T11:21:19.586Z,63.87
2023-01-18T11:26:28.291Z,69.46
2023-01-18T11:31:37.283Z,60.18
2023-01-18T11:36:45.812Z,70.41
2023-01-18T11:41:54.714Z,66.93
2023-01-18T11:47:03.276Z,76.57
2023-01-18T11:52:12.267Z,75.31
2023-01-18T11:57:20.884Z,73.68
2023-01-18T12:02:30.434Z,81.08
2023-01-18T12:07:39.078Z,69.85
2023-01-18T12:12:48.280Z,68.14
2023-01-18T12:18:11.767Z,66.25
2023-01-18T12:23:05.404Z,69.10
2023-01-18T12:28:14.609Z,76.20
2023-01-18T12:33:38.195Z,73.19
2023-01-18T12:38:31.999Z,71.57
2023-01-18T12:43:41.210Z,68.56
2023-01-18T12:48:49.737Z,77.13
2023-01-18T12:53:58.821Z,86.00
2023-01-18T12:59:07.364Z,91.18
2023-01-18T13:04:16.755Z,94.17
2023-01-18T13:09:25.309Z,91.64
2023-01-18T13:14:33.913Z,87.67
2023-01-18T13:19:42.619Z,84.84
2023-01-18T13:24:51.898Z,96.23
2023-01-18T13:30:00.403Z,90.43
2023-01-18T13:35:19.972Z,67.09
2023-01-18T13:40:17.531Z,68.66
2023-01-18T13:45:26.825Z,69.48
2023-01-18T13:50:35.904Z,74.52
2023-01-18T13:55:45.107Z,76.89
2023-01-18T14:00:53.944Z,79.30
2023-01-18T14:06:02.828Z,81.72
2023-01-18T14:11:12.435Z,90.96
2023-01-18T14:16:21.757Z,84.34
2023-01-18T14:21:30.462Z,84.34
2023-01-18T14:26:39.645Z,98.22
2023-01-18T14:31:48.287Z,135.96
2023-01-18T14:36:57.496Z,46.62
2023-01-18T14:42:06.438Z,40.35
2023-01-18T14:47:23.884Z,45.87
2023-01-18T14:52:23.912Z,52.55
2023-01-18T14:57:32.828Z,59.63
2023-01-18T15:02:41.699Z,74.10
2023-01-18T15:07:50.478Z,85.81
2023-01-18T15:12:59.333Z,93.71
2023-01-18T15:18:07.929Z,106.29
2023-01-18T15:23:16.472Z,108.05
2023-01-18T15:28:25.259Z,116.22
2023-01-18T15:33:34.093Z,125.62
2023-01-18T15:38:43.080Z,144.53
2023-01-18T15:43:52.111Z,126.59
2023-01-18T15:49:01.341Z,130.24
2023-01-18T15:54:09.779Z,111.92
2023-01-18T15:59:18.478Z,115.67
2023-01-18T16:04:30.575Z,102.08
2023-01-18T16:09:29.513Z,104.28
2023-01-18T16:14:38.096Z,105.68
2023-01-18T16:19:47.487Z,118.40
2023-01-18T16:24:55.807Z,99.73
2023-01-18T16:30:04.988Z,121.13
2023-01-18T16:35:13.341Z,115.15
2023-01-18T16:40:22.521Z,121.92
2023-01-18T16:45:31.391Z,114.39
2023-01-18T16:50:40.642Z,107.51
2023-01-18T16:55:49.198Z,106.58
2023-01-18T17:00:58.270Z,120.39
2023-01-18T17:06:06.478Z,118.40
2023-01-18T17:11:15.323Z,115.06
2023-01-18T17:16:24.495Z,105.31
2023-01-18T17:21:33.595Z,126.68
2023-01-18T17:26:42.492Z,106.34
2023-01-18T17:31:52.661Z,131.92
2023-01-18T17:36:59.612Z,130.63
2023-01-18T17:42:12.037Z,112.61
2023-01-18T17:47:17.390Z,112.09
2023-01-18T17:52:26.065Z,134.60
2023-01-18T17:57:34.859Z,137.72
2023-01-18T18:02:44.378Z,111.95
2023-01-18T18:07:53.109Z,102.28
2023-01-18T18:13:02.299Z,161.17
2023-01-18T18:18:22.717Z,155.07
2023-01-18T18:23:19.645Z,135.38
2023-01-18T18:28:28.802Z,137.12
2023-01-18T18:33:38.384Z,139.95
2023-01-18T18:38:47.767Z,150.02
2023-01-18T18:43:57.405Z,139.57
2023-01-18T18:49:06.310Z,114.51
2023-01-18T18:54:15.486Z,175.08
2023-01-18T18:59:24.517Z,169.34
2023-01-18T19:04:33.919Z,157.01
2023-01-18T19:09:42.855Z,192.69
2023-01-18T19:14:52.083Z,185.41
2023-01-18T19:20:01.071Z,148.73
2023-01-18T19:25:09.672Z,151.64
2023-01-18T19:30:18.688Z,160.31
2023-01-18T19:35:27.465Z,152.29
2023-01-18T19:40:36.291Z,147.11
2023-01-18T19:45:45.317Z,130.35
2023-01-18T19:50:54.072Z,152.27
2023-01-18T19:56:07.630Z,134.19
2023-01-18T20:01:11.505Z,135.13
2023-01-18T20:06:20.273Z,127.94
2023-01-18T20:11:29.162Z,149.29
2023-01-18T20:16:38.545Z,141.31
2023-01-18T20:21:47.276Z,143.45
2023-01-18T20:26:59.616Z,153.19
2023-01-18T20:32:15.130Z,126.95
2023-01-18T20:37:12.593Z,131.64
2023-01-18T20:42:21.237Z,148.65
2023-01-18T20:47:30.142Z,149.35
2023-01-18T20:52:38.751Z,173.60
2023-01-18T20:57:47.726Z,173.50
2023-01-18T21:02:56.681Z,140.54
2023-01-18T21:08:05.770Z,152.56
2023-01-18T21:13:14.475Z,151.00
2023-01-18T21:18:23.949Z,168.55
2023-01-18T21:23:32.444Z,172.04
2023-01-18T21:28:41.907Z,175.29
2023-01-18T21:33:50.357Z,188.55
2023-01-18T21:38:59.033Z,175.56
2023-01-18T21:44:07.340Z,177.50
2023-01-18T21:49:25.142Z,162.08
2023-01-18T21:54:24.185Z,174.05
2023-01-18T21:59:33.232Z,200.86
2023-01-18T22:04:41.899Z,182.26
2023-01-18T22:10:03.438Z,166.34
2023-01-18T22:14:58.888Z,136.21
2023-01-18T22:20:08.176Z,142.98
2023-01-18T22:25:16.601Z,125.68
2023-01-18T22:30:25.370Z,115.07
2023-01-18T22:35:34.514Z,134.29
2023-01-18T22:40:43.611Z,105.71
2023-01-18T22:45:53.001Z,94.17
2023-01-18T22:51:01.705Z,82.98
2023-01-18T22:56:09.920Z,70.00
2023-01-18T23:01:19.130Z,67.75
2023-01-18T23:06:27.986Z,77.47
2023-01-18T23:11:37.061Z,109.21
2023-01-18T23:16:46.299Z,120.53
2023-01-18T23:21:55.366Z,102.55
2023-01-18T23:27:03.802Z,106.00
2023-01-18T23:32:12.787Z,116.95
2023-01-18T23:37:21.283Z,95.61
2023-01-18T23:42:30.153Z,53.87
2023-01-18T23:47:38.980Z,37.80
2023-01-18T23:52:48.122Z,34.17
2023-01-18T23:57:56.942Z,37.93
